createdAt,value
2017-10-24T00:00:34.747Z,13
2017-10-24T00:01:15.284Z,13.07
2017-10-24T00:01:55.815Z,13
2017-10-24T00:02:36.359Z,13.07
2017-10-24T00:03:16.882Z,13.05
2017-10-24T00:03:57.420Z,13.08
2017-10-24T00:04:37.967Z,13.07
2017-10-24T00:05:18.495Z,12.97
2017-10-24T00:05:59.025Z,13.04
2017-10-24T00:06:39.557Z,13.05
2017-10-24T00:07:20.098Z,12.96
2017-10-24T00:08:00.636Z,12.96
2017-10-24T00:08:41.171Z,13.01
2017-10-24T00:09:21.712Z,13.01
2017-10-24T00:10:02.249Z,12.93
2017-10-24T00:10:42.774Z,12.96
2017-10-24T00:11:23.311Z,12.96
2017-10-24T00:12:03.850Z,13.04
2017-10-24T00:12:44.387Z,12.97
2017-10-24T00:13:24.924Z,12.96
2017-10-24T00:14:05.451Z,12.95
2017-10-24T00:14:46.053Z,12.92
2017-10-24T00:15:26.609Z,12.96
2017-10-24T00:16:07.148Z,12.96
2017-10-24T00:16:47.681Z,13.05
2017-10-24T00:17:28.221Z,13.01
2017-10-24T00:18:08.771Z,13.08
2017-10-24T00:18:49.288Z,13.08
2017-10-24T00:19:29.819Z,13
2017-10-24T00:20:10.358Z,12.97
2017-10-24T00:20:50.899Z,13
2017-10-24T00:21:31.431Z,13.05
2017-10-24T00:22:11.972Z,13.03
2017-10-24T00:22:52.501Z,13.07
2017-10-24T00:23:33.039Z,13.04
2017-10-24T00:24:13.574Z,12.96
2017-10-24T00:24:54.112Z,12.93
2017-10-24T00:25:34.651Z,13.04
2017-10-24T00:26:15.225Z,12.93
2017-10-24T00:26:55.762Z,12.93
2017-10-24T00:27:36.387Z,12.97
2017-10-24T00:28:16.933Z,13
2017-10-24T00:28:57.455Z,13
2017-10-24T00:29:37.994Z,12.93
2017-10-24T00:30:18.531Z,13
2017-10-24T00:30:59.067Z,12.97
2017-10-24T00:31:39.608Z,12.95
2017-10-24T00:32:20.150Z,12.95
2017-10-24T00:33:00.687Z,12.93
2017-10-24T00:33:41.220Z,12.95
2017-10-24T00:34:21.755Z,12.97
2017-10-24T00:35:02.286Z,12.95
2017-10-24T00:35:42.825Z,12.92
2017-10-24T00:36:23.364Z,12.95
2017-10-24T00:37:03.906Z,12.93
2017-10-24T00:37:44.441Z,12.93
2017-10-24T00:38:24.981Z,12.93
2017-10-24T00:39:05.506Z,12.97
2017-10-24T00:39:46.038Z,12.96
2017-10-24T00:40:26.577Z,12.9
2017-10-24T00:41:07.119Z,12.83
2017-10-24T00:41:47.655Z,12.9
2017-10-24T00:42:28.198Z,12.86
2017-10-24T00:43:08.746Z,12.93
2017-10-24T00:43:49.263Z,12.93
2017-10-24T00:44:29.812Z,12.89
2017-10-24T00:45:10.331Z,12.92
2017-10-24T00:45:50.871Z,12.82
2017-10-24T00:46:31.407Z,12.82
2017-10-24T00:47:11.942Z,12.82
2017-10-24T00:47:52.475Z,12.95
2017-10-24T00:48:33.009Z,12.83
2017-10-24T00:49:13.549Z,12.85
2017-10-24T00:49:54.086Z,12.82
2017-10-24T00:50:34.664Z,12.79
2017-10-24T00:51:15.256Z,12.82
2017-10-24T00:51:55.790Z,12.82
2017-10-24T00:52:36.331Z,12.86
2017-10-24T00:53:16.859Z,12.79
2017-10-24T00:53:57.402Z,12.83
2017-10-24T00:54:37.939Z,12.86
2017-10-24T00:55:18.480Z,12.82
2017-10-24T00:55:59.019Z,12.79
2017-10-24T00:56:39.547Z,12.85
2017-10-24T00:57:20.074Z,12.77
2017-10-24T00:58:00.613Z,12.87
2017-10-24T00:58:41.146Z,12.78
2017-10-24T00:59:21.687Z,12.79
2017-10-24T01:00:02.222Z,12.86
2017-10-24T01:00:42.779Z,12.82
2017-10-24T01:01:23.314Z,12.82
2017-10-24T01:02:03.847Z,12.82
2017-10-24T01:02:44.379Z,12.77
2017-10-24T01:03:24.917Z,12.71
2017-10-24T01:04:05.462Z,12.78
2017-10-24T01:04:45.989Z,12.64
2017-10-24T01:05:26.522Z,12.78
2017-10-24T01:06:07.056Z,12.7
2017-10-24T01:06:50.257Z,12.72
2017-10-24T01:07:30.795Z,12.7
2017-10-24T01:08:11.356Z,12.67
2017-10-24T01:08:51.901Z,12.72
2017-10-24T01:09:32.431Z,12.7
2017-10-24T01:10:12.964Z,12.7
2017-10-24T01:10:53.500Z,12.65
2017-10-24T01:11:34.036Z,12.68
2017-10-24T01:12:14.576Z,12.68
2017-10-24T01:12:55.103Z,12.7
2017-10-24T01:13:35.649Z,12.64
2017-10-24T01:14:16.179Z,12.68
2017-10-24T01:14:56.721Z,12.65
2017-10-24T01:15:37.261Z,12.67
2017-10-24T01:16:17.794Z,12.67
2017-10-24T01:16:58.324Z,12.68
2017-10-24T01:17:38.856Z,12.67
2017-10-24T01:18:19.393Z,12.64
2017-10-24T01:18:59.925Z,12.68
2017-10-24T01:19:40.462Z,12.7
2017-10-24T01:20:20.997Z,12.71
2017-10-24T01:21:01.539Z,12.67
2017-10-24T01:21:42.088Z,12.67
2017-10-24T01:22:22.626Z,12.68
2017-10-24T01:23:03.162Z,12.72
2017-10-24T01:23:43.699Z,12.74
2017-10-24T01:24:24.240Z,12.71
2017-10-24T01:25:04.766Z,12.7
2017-10-24T01:25:45.351Z,12.74
2017-10-24T01:26:25.885Z,12.67
2017-10-24T01:27:06.420Z,12.74
2017-10-24T01:27:46.955Z,12.7
2017-10-24T01:28:27.498Z,12.68
2017-10-24T01:29:08.035Z,12.71
2017-10-24T01:29:48.567Z,12.7
2017-10-24T01:30:29.105Z,12.68
2017-10-24T01:31:09.636Z,12.67
2017-10-24T01:31:50.165Z,12.71
2017-10-24T01:32:30.707Z,12.7
2017-10-24T01:33:11.237Z,12.75
2017-10-24T01:33:51.768Z,12.7
2017-10-24T01:34:32.303Z,12.7
2017-10-24T01:35:12.840Z,12.77
2017-10-24T01:35:53.377Z,12.7
2017-10-24T01:36:33.910Z,12.67
2017-10-24T01:37:14.436Z,12.7
2017-10-24T01:37:54.985Z,12.68
2017-10-24T01:38:35.519Z,12.75
2017-10-24T01:39:16.055Z,12.68
2017-10-24T01:39:56.590Z,12.77
2017-10-24T01:40:37.136Z,12.67
2017-10-24T01:41:17.668Z,12.67
2017-10-24T01:41:58.239Z,12.71
2017-10-24T01:42:38.806Z,12.67
2017-10-24T01:43:19.336Z,12.68
2017-10-24T01:43:59.872Z,12.68
2017-10-24T01:44:40.412Z,12.68
2017-10-24T01:45:20.968Z,12.62
2017-10-24T01:46:01.483Z,12.68
2017-10-24T01:46:42.009Z,12.64
2017-10-24T01:47:22.545Z,12.68
2017-10-24T01:48:03.088Z,12.71
2017-10-24T01:48:43.622Z,12.67
2017-10-24T01:49:24.162Z,12.68
2017-10-24T01:50:04.686Z,12.7
2017-10-24T01:50:45.212Z,12.82
2017-10-24T01:51:25.751Z,12.7
2017-10-24T01:52:06.290Z,12.77
2017-10-24T01:52:46.826Z,12.72
2017-10-24T01:53:27.365Z,12.78
2017-10-24T01:54:07.899Z,12.72
2017-10-24T01:54:48.430Z,12.72
2017-10-24T01:55:28.959Z,12.64
2017-10-24T01:56:09.493Z,12.67
2017-10-24T01:56:50.040Z,12.67
2017-10-24T01:57:30.567Z,12.7
2017-10-24T01:58:11.092Z,12.74
2017-10-24T01:58:51.622Z,12.67
2017-10-24T01:59:32.153Z,12.67
2017-10-24T02:00:12.689Z,12.7
2017-10-24T02:00:53.225Z,12.67
2017-10-24T02:01:33.762Z,12.68
2017-10-24T02:02:14.283Z,12.67
2017-10-24T02:02:54.834Z,12.64
2017-10-24T02:03:35.374Z,12.72
2017-10-24T02:04:15.912Z,12.67
2017-10-24T02:04:56.452Z,12.68
2017-10-24T02:05:37.052Z,12.7
2017-10-24T02:06:17.583Z,12.7
2017-10-24T02:06:58.125Z,12.64
2017-10-24T02:07:38.668Z,12.68
2017-10-24T02:08:19.206Z,12.7
2017-10-24T02:08:59.741Z,12.72
2017-10-24T02:09:40.269Z,12.71
2017-10-24T02:10:20.807Z,12.71
2017-10-24T02:11:01.339Z,12.67
2017-10-24T02:11:41.872Z,12.7
2017-10-24T02:12:22.408Z,12.71
2017-10-24T02:13:02.943Z,12.72
2017-10-24T02:13:43.477Z,12.71
2017-10-24T02:14:24.013Z,12.68
2017-10-24T02:15:04.548Z,12.7
2017-10-24T02:15:45.084Z,12.72
2017-10-24T02:16:25.691Z,12.7
2017-10-24T02:17:06.226Z,12.71
2017-10-24T02:17:46.757Z,12.72
2017-10-24T02:18:27.287Z,12.7
2017-10-24T02:19:07.829Z,12.72
2017-10-24T02:19:48.365Z,12.67
2017-10-24T02:20:28.901Z,12.68
2017-10-24T02:21:09.433Z,12.7
2017-10-24T02:21:49.956Z,12.71
2017-10-24T02:22:30.491Z,12.71
2017-10-24T02:23:11.034Z,12.65
2017-10-24T02:23:51.572Z,12.68
2017-10-24T02:24:32.104Z,12.7
2017-10-24T02:25:12.639Z,12.65
2017-10-24T02:25:53.176Z,12.7
2017-10-24T02:26:33.707Z,12.68
2017-10-24T02:27:14.253Z,12.7
2017-10-24T02:27:54.773Z,12.71
2017-10-24T02:28:35.310Z,12.71
2017-10-24T02:29:15.841Z,12.68
2017-10-24T02:29:56.376Z,12.68
2017-10-24T02:30:36.984Z,12.74
2017-10-24T02:31:17.429Z,12.7
2017-10-24T02:31:57.975Z,12.71
2017-10-24T02:32:38.510Z,12.7
2017-10-24T02:33:19.047Z,12.72
2017-10-24T02:33:59.584Z,12.67
2017-10-24T02:34:40.105Z,12.67
2017-10-24T02:35:20.639Z,12.68
2017-10-24T02:36:01.178Z,12.64
2017-10-24T02:36:41.713Z,12.71
2017-10-24T02:37:22.241Z,12.68
2017-10-24T02:38:02.781Z,12.71
2017-10-24T02:38:43.313Z,12.68
2017-10-24T02:39:23.850Z,12.7
2017-10-24T02:40:04.382Z,12.71
2017-10-24T02:40:44.914Z,12.78
2017-10-24T02:41:25.453Z,12.72
2017-10-24T02:42:05.984Z,12.7
2017-10-24T02:42:46.519Z,12.77
2017-10-24T02:43:27.054Z,12.71
2017-10-24T02:44:07.590Z,12.67
2017-10-24T02:44:48.121Z,12.78
2017-10-24T02:45:28.663Z,12.78
2017-10-24T02:46:09.198Z,12.75
2017-10-24T02:46:49.729Z,12.67
2017-10-24T02:47:30.262Z,12.7
2017-10-24T02:48:10.799Z,12.83
2017-10-24T02:48:51.340Z,12.68
2017-10-24T02:49:31.872Z,12.78
2017-10-24T02:50:12.410Z,12.68
2017-10-24T02:50:52.946Z,12.82
2017-10-24T02:51:33.483Z,12.71
2017-10-24T02:52:14.023Z,12.79
2017-10-24T02:52:54.555Z,12.78
2017-10-24T02:53:35.095Z,12.82
2017-10-24T02:54:15.646Z,12.79
2017-10-24T02:54:56.169Z,12.78
2017-10-24T02:55:36.696Z,12.78
2017-10-24T02:56:17.232Z,12.78
2017-10-24T02:56:57.767Z,12.79
2017-10-24T02:57:38.304Z,12.86
2017-10-24T02:58:18.841Z,12.85
2017-10-24T02:58:59.380Z,12.79
2017-10-24T02:59:39.910Z,12.82
2017-10-24T03:00:20.443Z,12.85
2017-10-24T03:01:00.980Z,12.83
2017-10-24T03:01:41.509Z,12.83
2017-10-24T03:02:22.047Z,12.82
2017-10-24T03:03:02.584Z,12.77
2017-10-24T03:03:43.137Z,12.86
2017-10-24T03:04:23.680Z,12.75
2017-10-24T03:05:04.219Z,12.79
2017-10-24T03:05:44.747Z,12.82
2017-10-24T03:06:25.287Z,12.79
2017-10-24T03:07:05.822Z,12.82
2017-10-24T03:07:46.355Z,12.82
2017-10-24T03:08:26.889Z,12.85
2017-10-24T03:09:07.432Z,12.82
2017-10-24T03:09:47.970Z,12.82
2017-10-24T03:10:28.498Z,12.78
2017-10-24T03:11:09.027Z,12.82
2017-10-24T03:11:49.566Z,12.83
2017-10-24T03:12:30.090Z,12.72
2017-10-24T03:13:10.636Z,12.72
2017-10-24T03:13:51.161Z,12.7
2017-10-24T03:14:31.699Z,12.67
2017-10-24T03:15:12.242Z,12.71
2017-10-24T03:15:52.781Z,12.68
2017-10-24T03:16:33.312Z,12.71
2017-10-24T03:17:13.840Z,12.67
2017-10-24T03:17:54.430Z,12.78
2017-10-24T03:18:34.971Z,12.68
2017-10-24T03:19:15.507Z,12.78
2017-10-24T03:19:56.043Z,12.78
2017-10-24T03:20:36.592Z,12.79
2017-10-24T03:21:17.130Z,12.65
2017-10-24T03:21:57.661Z,12.78
2017-10-24T03:22:38.202Z,12.67
2017-10-24T03:23:18.760Z,12.77
2017-10-24T03:23:59.269Z,12.78
2017-10-24T03:24:39.804Z,12.7
2017-10-24T03:25:20.345Z,12.86
2017-10-24T03:26:00.880Z,12.79
2017-10-24T03:26:41.413Z,12.83
2017-10-24T03:27:21.947Z,12.79
2017-10-24T03:28:02.477Z,12.82
2017-10-24T03:28:43.015Z,12.79
2017-10-24T03:29:23.552Z,12.77
2017-10-24T03:30:04.084Z,12.77
2017-10-24T03:30:44.617Z,12.83
2017-10-24T03:31:25.147Z,12.85
2017-10-24T03:32:05.680Z,12.85
2017-10-24T03:32:46.226Z,12.82
2017-10-24T03:33:26.751Z,12.89
2017-10-24T03:34:07.287Z,12.79
2017-10-24T03:34:47.826Z,12.85
2017-10-24T03:35:28.364Z,12.87
2017-10-24T03:36:08.901Z,12.78
2017-10-24T03:36:49.440Z,12.83
2017-10-24T03:37:29.979Z,12.82
2017-10-24T03:38:10.516Z,12.83
2017-10-24T03:38:51.043Z,12.86
2017-10-24T03:39:31.590Z,12.86
2017-10-24T03:40:12.124Z,12.82
2017-10-24T03:40:52.659Z,12.83
2017-10-24T03:41:33.197Z,12.83
2017-10-24T03:42:13.732Z,12.75
2017-10-24T03:42:54.253Z,12.82
2017-10-24T03:43:34.789Z,12.87
2017-10-24T03:44:15.320Z,12.82
2017-10-24T03:44:55.869Z,12.85
2017-10-24T03:45:36.398Z,12.82
2017-10-24T03:46:16.934Z,12.83
2017-10-24T03:46:57.469Z,12.83
2017-10-24T03:47:38.007Z,12.82
2017-10-24T03:48:18.536Z,12.82
2017-10-24T03:48:59.071Z,12.85
2017-10-24T03:49:39.611Z,12.82
2017-10-24T03:50:20.148Z,12.85
2017-10-24T03:51:00.690Z,12.83
2017-10-24T03:51:41.228Z,12.85
2017-10-24T03:52:21.768Z,12.79
2017-10-24T03:53:02.306Z,12.93
2017-10-24T03:53:42.837Z,12.83
2017-10-24T03:54:23.378Z,12.85
2017-10-24T03:55:03.904Z,12.97
2017-10-24T03:55:44.448Z,12.85
2017-10-24T03:56:24.987Z,12.85
2017-10-24T03:57:05.524Z,12.87
2017-10-24T03:57:46.054Z,12.9
2017-10-24T03:58:26.589Z,12.97
2017-10-24T03:59:07.143Z,12.93
2017-10-24T03:59:47.668Z,12.92
2017-10-24T04:00:28.210Z,12.96
2017-10-24T04:01:08.746Z,12.93
2017-10-24T04:01:49.291Z,12.85
2017-10-24T04:02:29.832Z,12.86
2017-10-24T04:03:10.366Z,12.85
2017-10-24T04:03:50.893Z,12.87
2017-10-24T04:04:31.472Z,12.86
2017-10-24T04:05:11.961Z,12.82
2017-10-24T04:05:52.504Z,12.68
2017-10-24T04:06:33.038Z,12.67
2017-10-24T04:07:13.579Z,12.71
2017-10-24T04:07:54.110Z,12.7
2017-10-24T04:08:34.636Z,12.67
2017-10-24T04:09:15.177Z,12.62
2017-10-24T04:09:55.714Z,12.7
2017-10-24T04:10:36.261Z,12.6
2017-10-24T04:11:16.798Z,12.65
2017-10-24T04:11:57.333Z,12.6
2017-10-24T04:12:37.868Z,12.62
2017-10-24T04:13:18.400Z,12.57
2017-10-24T04:13:58.942Z,12.6
2017-10-24T04:14:39.479Z,12.62
2017-10-24T04:15:20.012Z,12.57
2017-10-24T04:16:00.548Z,12.6
2017-10-24T04:16:41.087Z,12.62
2017-10-24T04:17:21.621Z,12.6
2017-10-24T04:18:02.147Z,12.56
2017-10-24T04:18:42.685Z,12.6
2017-10-24T04:19:23.239Z,12.57
2017-10-24T04:20:03.777Z,12.62
2017-10-24T04:20:44.314Z,12.6
2017-10-24T04:21:24.846Z,12.68
2017-10-24T04:22:05.376Z,12.64
2017-10-24T04:22:45.907Z,12.6
2017-10-24T04:23:26.438Z,12.68
2017-10-24T04:24:06.974Z,12.72
2017-10-24T04:24:47.525Z,12.64
2017-10-24T04:25:28.047Z,12.65
2017-10-24T04:26:08.586Z,12.65
2017-10-24T04:26:49.118Z,12.68
2017-10-24T04:27:29.656Z,12.64
2017-10-24T04:28:10.183Z,12.71
2017-10-24T04:28:50.717Z,12.65
2017-10-24T04:29:31.258Z,12.7
2017-10-24T04:30:11.792Z,12.64
2017-10-24T04:30:52.320Z,12.7
2017-10-24T04:31:32.855Z,12.72
2017-10-24T04:32:13.391Z,12.6
2017-10-24T04:32:53.913Z,12.64
2017-10-24T04:33:34.449Z,12.65
2017-10-24T04:34:14.985Z,12.68
2017-10-24T04:34:55.524Z,12.64
2017-10-24T04:35:36.050Z,12.65
2017-10-24T04:36:16.611Z,12.62
2017-10-24T04:36:57.139Z,12.64
2017-10-24T04:37:37.676Z,12.64
2017-10-24T04:38:18.214Z,12.62
2017-10-24T04:38:58.756Z,12.6
2017-10-24T04:39:39.287Z,12.65
2017-10-24T04:40:19.823Z,12.65
2017-10-24T04:41:00.353Z,12.65
2017-10-24T04:41:40.886Z,12.64
2017-10-24T04:42:21.429Z,12.65
2017-10-24T04:43:01.959Z,12.62
2017-10-24T04:43:42.490Z,12.64
2017-10-24T04:44:23.019Z,12.65
2017-10-24T04:45:03.554Z,12.67
2017-10-24T04:45:44.092Z,12.67
2017-10-24T04:46:24.637Z,12.7
2017-10-24T04:47:05.173Z,12.67
2017-10-24T04:47:45.713Z,12.67
2017-10-24T04:48:26.249Z,12.67
2017-10-24T04:49:06.783Z,12.7
2017-10-24T04:49:47.317Z,12.7
2017-10-24T04:50:27.847Z,12.68
2017-10-24T04:51:08.397Z,12.68
2017-10-24T04:51:49.035Z,12.71
2017-10-24T04:52:29.582Z,12.7
2017-10-24T04:53:10.119Z,12.72
2017-10-24T04:53:50.653Z,12.71
2017-10-24T04:54:31.187Z,12.7
2017-10-24T04:55:11.716Z,12.68
2017-10-24T04:55:52.260Z,12.67
2017-10-24T04:56:32.799Z,12.67
2017-10-24T04:57:13.329Z,12.68
2017-10-24T04:57:53.861Z,12.78
2017-10-24T04:58:34.389Z,12.68
2017-10-24T04:59:14.918Z,12.78
2017-10-24T04:59:55.456Z,12.77
2017-10-24T05:00:35.989Z,12.82
2017-10-24T05:01:16.525Z,12.71
2017-10-24T05:01:57.059Z,12.78
2017-10-24T05:02:37.580Z,12.78
2017-10-24T05:03:18.121Z,12.71
2017-10-24T05:03:58.670Z,12.78
2017-10-24T05:04:39.203Z,12.83
2017-10-24T05:05:19.738Z,12.78
2017-10-24T05:06:00.267Z,12.82
2017-10-24T05:06:40.806Z,12.82
2017-10-24T05:07:21.330Z,12.82
2017-10-24T05:08:01.880Z,12.83
2017-10-24T05:08:42.407Z,12.82
2017-10-24T05:09:22.940Z,12.86
2017-10-24T05:10:03.483Z,12.82
2017-10-24T05:10:44.015Z,12.82
2017-10-24T05:11:24.551Z,12.83
2017-10-24T05:12:05.081Z,12.75
2017-10-24T05:12:45.616Z,12.85
2017-10-24T05:13:26.143Z,12.86
2017-10-24T05:14:06.670Z,12.82
2017-10-24T05:14:47.203Z,12.82
2017-10-24T05:15:27.742Z,12.78
2017-10-24T05:16:08.272Z,12.82
2017-10-24T05:16:48.809Z,12.86
2017-10-24T05:17:29.342Z,12.82
2017-10-24T05:18:09.859Z,12.83
2017-10-24T05:18:50.410Z,12.86
2017-10-24T05:19:30.943Z,12.78
2017-10-24T05:20:11.475Z,12.79
2017-10-24T05:20:52.015Z,12.83
2017-10-24T05:21:32.548Z,12.82
2017-10-24T05:22:13.089Z,12.82
2017-10-24T05:22:53.625Z,12.86
2017-10-24T05:23:34.156Z,12.82
2017-10-24T05:24:14.689Z,12.9
2017-10-24T05:24:55.226Z,12.86
2017-10-24T05:25:35.777Z,12.9
2017-10-24T05:26:16.369Z,12.86
2017-10-24T05:26:56.902Z,12.87
2017-10-24T05:27:37.455Z,12.83
2017-10-24T05:28:17.971Z,12.83
2017-10-24T05:28:58.503Z,12.85
2017-10-24T05:29:39.047Z,12.86
2017-10-24T05:30:19.571Z,12.85
2017-10-24T05:31:00.097Z,12.83
2017-10-24T05:31:40.636Z,12.85
2017-10-24T05:32:21.174Z,12.87
2017-10-24T05:33:01.709Z,12.85
2017-10-24T05:33:42.242Z,12.96
2017-10-24T05:34:22.778Z,12.89
2017-10-24T05:35:03.303Z,12.93
2017-10-24T05:35:43.836Z,12.85
2017-10-24T05:36:24.380Z,12.83
2017-10-24T05:37:04.970Z,12.78
2017-10-24T05:37:45.494Z,12.87
2017-10-24T05:38:26.121Z,12.93
2017-10-24T05:39:06.608Z,12.85
2017-10-24T05:39:47.154Z,12.95
2017-10-24T05:40:27.686Z,12.89
2017-10-24T05:41:08.214Z,12.97
2017-10-24T05:41:48.751Z,12.9
2017-10-24T05:42:29.287Z,12.86
2017-10-24T05:43:09.818Z,12.87
2017-10-24T05:43:50.355Z,12.87
2017-10-24T05:44:30.883Z,12.87
2017-10-24T05:45:11.423Z,12.95
2017-10-24T05:45:51.999Z,12.92
2017-10-24T05:46:32.573Z,12.93
2017-10-24T05:47:13.091Z,12.86
2017-10-24T05:47:53.660Z,12.97
2017-10-24T05:48:34.196Z,12.97
2017-10-24T05:49:14.728Z,12.92
2017-10-24T05:49:55.268Z,12.95
2017-10-24T05:50:35.799Z,13.01
2017-10-24T05:51:16.326Z,12.87
2017-10-24T05:51:56.856Z,12.9
2017-10-24T05:52:37.392Z,12.97
2017-10-24T05:53:17.927Z,12.86
2017-10-24T05:53:58.462Z,12.96
2017-10-24T05:54:38.996Z,12.9
2017-10-24T05:55:19.530Z,12.95
2017-10-24T05:56:00.070Z,12.97
2017-10-24T05:56:40.605Z,12.97
2017-10-24T05:57:21.139Z,12.97
2017-10-24T05:58:01.674Z,12.95
2017-10-24T05:58:42.209Z,12.97
2017-10-24T05:59:22.741Z,12.96
2017-10-24T06:00:03.281Z,12.92
2017-10-24T06:00:43.815Z,12.96
2017-10-24T06:01:24.350Z,12.96
2017-10-24T06:02:04.888Z,13
2017-10-24T06:02:45.427Z,12.93
2017-10-24T06:03:25.947Z,12.96
2017-10-24T06:04:06.484Z,12.92
2017-10-24T06:04:47.015Z,13
2017-10-24T06:05:27.556Z,12.97
2017-10-24T06:06:08.117Z,12.97
2017-10-24T06:06:48.657Z,12.97
2017-10-24T06:07:29.193Z,13.01
2017-10-24T06:08:09.732Z,12.93
2017-10-24T06:08:50.269Z,12.96
2017-10-24T06:09:30.802Z,12.95
2017-10-24T06:10:11.335Z,12.96
2017-10-24T06:10:51.869Z,13
2017-10-24T06:11:32.410Z,13.05
2017-10-24T06:12:12.947Z,12.97
2017-10-24T06:12:53.486Z,13.01
2017-10-24T06:13:34.022Z,13.01
2017-10-24T06:14:14.559Z,13.07
2017-10-24T06:14:55.094Z,13.07
2017-10-24T06:15:35.633Z,13.03
2017-10-24T06:16:16.166Z,13.01
2017-10-24T06:16:56.699Z,13.01
2017-10-24T06:17:37.222Z,13.03
2017-10-24T06:18:17.775Z,13.01
2017-10-24T06:18:58.313Z,12.95
2017-10-24T06:19:38.852Z,12.97
2017-10-24T06:20:19.381Z,13
2017-10-24T06:20:59.917Z,13.03
2017-10-24T06:21:40.451Z,13.11
2017-10-24T06:22:20.981Z,13.05
2017-10-24T06:23:01.517Z,13.03
2017-10-24T06:23:42.050Z,13.03
2017-10-24T06:24:22.581Z,13.04
2017-10-24T06:25:03.105Z,13.04
2017-10-24T06:25:43.652Z,13.04
2017-10-24T06:26:24.221Z,13
2017-10-24T06:27:04.754Z,13.01
2017-10-24T06:27:45.283Z,13.05
2017-10-24T06:28:25.816Z,13.03
2017-10-24T06:29:06.357Z,13.04
2017-10-24T06:29:46.888Z,13.05
2017-10-24T06:30:27.423Z,13.03
2017-10-24T06:31:07.958Z,13.04
2017-10-24T06:31:48.490Z,13.08
2017-10-24T06:32:29.027Z,13.05
2017-10-24T06:33:09.584Z,13.08
2017-10-24T06:33:50.114Z,13.12
2017-10-24T06:34:30.649Z,13.11
2017-10-24T06:35:11.186Z,13.08
2017-10-24T06:35:51.723Z,13.11
2017-10-24T06:36:32.258Z,13.19
2017-10-24T06:37:12.799Z,13.15
2017-10-24T06:37:53.335Z,13.17
2017-10-24T06:38:33.855Z,13.15
2017-10-24T06:39:14.406Z,13.25
2017-10-24T06:39:54.944Z,13.14
2017-10-24T06:40:35.488Z,13.14
2017-10-24T06:41:16.018Z,13.07
2017-10-24T06:41:56.558Z,13.25
2017-10-24T06:42:37.096Z,13.14
2017-10-24T06:43:17.621Z,13.2
2017-10-24T06:43:58.157Z,13.12
2017-10-24T06:44:38.694Z,13.15
2017-10-24T06:45:19.226Z,13.15
2017-10-24T06:45:59.767Z,13.17
2017-10-24T06:46:40.299Z,13.15
2017-10-24T06:47:20.830Z,13.15
2017-10-24T06:48:01.396Z,13.22
2017-10-24T06:48:42.013Z,13.17
2017-10-24T06:49:22.544Z,13.22
2017-10-24T06:50:03.081Z,13.22
2017-10-24T06:50:43.620Z,13.22
2017-10-24T06:51:24.152Z,13.19
2017-10-24T06:52:04.688Z,13.22
2017-10-24T06:52:45.227Z,13.26
2017-10-24T06:53:25.763Z,13.23
2017-10-24T06:54:06.296Z,13.23
2017-10-24T06:54:46.833Z,13.23
2017-10-24T06:55:27.362Z,13.19
2017-10-24T06:56:07.900Z,13.22
2017-10-24T06:56:48.438Z,13.29
2017-10-24T06:57:28.971Z,13.19
2017-10-24T06:58:09.511Z,13.23
2017-10-24T06:58:50.042Z,13.25
2017-10-24T06:59:30.575Z,13.25
2017-10-24T07:00:11.118Z,13.26
2017-10-24T07:00:51.656Z,13.25
2017-10-24T07:01:32.186Z,13.23
2017-10-24T07:02:12.723Z,13.22
2017-10-24T07:02:53.251Z,13.25
2017-10-24T07:03:33.795Z,13.25
2017-10-24T07:04:14.332Z,13.25
2017-10-24T07:04:54.866Z,13.22
2017-10-24T07:05:35.399Z,13.26
2017-10-24T07:06:15.936Z,13.25
2017-10-24T07:06:56.489Z,13.25
2017-10-24T07:07:37.004Z,13.3
2017-10-24T07:08:17.542Z,13.26
2017-10-24T07:08:58.117Z,13.36
2017-10-24T07:09:38.656Z,13.29
2017-10-24T07:10:19.203Z,13.28
2017-10-24T07:10:59.732Z,13.38
2017-10-24T07:11:40.260Z,13.41
2017-10-24T07:12:20.799Z,13.36
2017-10-24T07:13:01.325Z,13.29
2017-10-24T07:13:41.859Z,13.32
2017-10-24T07:14:22.465Z,13.28
2017-10-24T07:15:02.932Z,13.29
2017-10-24T07:15:43.558Z,13.45
2017-10-24T07:16:24.089Z,13.42
2017-10-24T07:17:04.624Z,13.45
2017-10-24T07:17:45.159Z,13.42
2017-10-24T07:18:25.696Z,13.39
2017-10-24T07:19:06.233Z,13.42
2017-10-24T07:19:46.760Z,13.46
2017-10-24T07:20:27.293Z,13.42
2017-10-24T07:21:07.828Z,13.44
2017-10-24T07:21:48.369Z,13.42
2017-10-24T07:22:28.907Z,13.41
2017-10-24T07:23:09.440Z,13.49
2017-10-24T07:23:49.965Z,13.45
2017-10-24T07:24:30.498Z,13.48
2017-10-24T07:25:11.054Z,13.46
2017-10-24T07:25:51.572Z,13.44
2017-10-24T07:26:32.111Z,13.42
2017-10-24T07:27:12.656Z,13.52
2017-10-24T07:27:53.186Z,13.49
2017-10-24T07:28:33.724Z,13.49
2017-10-24T07:29:14.258Z,13.45
2017-10-24T07:29:54.797Z,13.49
2017-10-24T07:30:35.329Z,13.49
2017-10-24T07:31:15.849Z,13.52
2017-10-24T07:31:56.389Z,13.46
2017-10-24T07:32:36.923Z,13.55
2017-10-24T07:33:17.462Z,13.44
2017-10-24T07:33:57.993Z,13.48
2017-10-24T07:34:38.528Z,13.41
2017-10-24T07:35:19.066Z,13.41
2017-10-24T07:35:59.597Z,13.39
2017-10-24T07:36:40.126Z,13.46
2017-10-24T07:37:20.660Z,13.38
2017-10-24T07:38:01.203Z,13.44
2017-10-24T07:38:41.737Z,13.32
2017-10-24T07:39:22.273Z,13.29
2017-10-24T07:40:02.810Z,13.44
2017-10-24T07:40:43.347Z,13.28
2017-10-24T07:41:23.885Z,13.28
2017-10-24T07:42:04.421Z,13.25
2017-10-24T07:42:45.038Z,13.28
2017-10-24T07:43:25.573Z,13.29
2017-10-24T07:44:06.106Z,13.36
2017-10-24T07:44:46.644Z,13.26
2017-10-24T07:45:27.186Z,13.26
2017-10-24T07:46:07.712Z,13.32
2017-10-24T07:46:48.248Z,13.22
2017-10-24T07:47:28.782Z,13.32
2017-10-24T07:48:09.322Z,13.26
2017-10-24T07:48:49.865Z,13.28
2017-10-24T07:49:30.395Z,13.25
2017-10-24T07:50:10.940Z,13.3
2017-10-24T07:50:51.468Z,13.39
2017-10-24T07:51:32.008Z,13.3
2017-10-24T07:52:12.549Z,13.32
2017-10-24T07:52:53.084Z,13.41
2017-10-24T07:53:33.627Z,13.32
2017-10-24T07:54:14.160Z,13.38
2017-10-24T07:54:54.695Z,13.44
2017-10-24T07:55:35.220Z,13.42
2017-10-24T07:56:15.756Z,13.38
2017-10-24T07:56:56.290Z,13.46
2017-10-24T07:57:36.836Z,13.42
2017-10-24T07:58:17.379Z,13.46
2017-10-24T07:58:57.910Z,13.48
2017-10-24T07:59:38.445Z,13.44
2017-10-24T08:00:18.975Z,13.49
2017-10-24T08:00:59.529Z,13.6
2017-10-24T08:01:40.067Z,13.57
2017-10-24T08:02:20.606Z,13.57
2017-10-24T08:03:01.171Z,13.64
2017-10-24T08:03:41.719Z,13.66
2017-10-24T08:04:22.340Z,13.73
2017-10-24T08:05:02.904Z,13.75
2017-10-24T08:05:43.428Z,13.73
2017-10-24T08:06:23.960Z,13.81
2017-10-24T08:07:04.496Z,13.82
2017-10-24T08:07:45.035Z,13.89
2017-10-24T08:08:25.576Z,13.87
2017-10-24T08:09:06.137Z,13.92
2017-10-24T08:09:46.675Z,13.95
2017-10-24T08:10:27.229Z,13.95
2017-10-24T08:11:07.765Z,13.99
2017-10-24T08:11:48.307Z,14.04
2017-10-24T08:12:28.846Z,14.07
2017-10-24T08:13:09.383Z,14.04
2017-10-24T08:13:49.926Z,14.1
2017-10-24T08:14:30.450Z,14.09
2017-10-24T08:15:10.991Z,14.07
2017-10-24T08:15:51.534Z,14.14
2017-10-24T08:16:32.071Z,14.17
2017-10-24T08:17:12.607Z,14.18
2017-10-24T08:17:53.145Z,14.14
2017-10-24T08:18:33.682Z,14.14
2017-10-24T08:19:14.212Z,14.09
2017-10-24T08:19:54.746Z,14.15
2017-10-24T08:20:35.288Z,14.12
2017-10-24T08:21:15.825Z,14.15
2017-10-24T08:21:56.361Z,14.09
2017-10-24T08:22:36.902Z,14.2
2017-10-24T08:23:17.439Z,14.14
2017-10-24T08:23:57.973Z,14.1
2017-10-24T08:24:38.512Z,14.18
2017-10-24T08:25:19.049Z,14.21
2017-10-24T08:25:59.582Z,14.2
2017-10-24T08:26:40.131Z,14.21
2017-10-24T08:27:20.667Z,14.24
2017-10-24T08:28:01.212Z,14.22
2017-10-24T08:28:41.746Z,14.27
2017-10-24T08:29:22.276Z,14.35
2017-10-24T08:30:02.820Z,14.37
2017-10-24T08:30:43.360Z,14.36
2017-10-24T08:31:23.897Z,14.46
2017-10-24T08:32:04.438Z,14.47
2017-10-24T08:32:44.978Z,14.55
2017-10-24T08:33:25.515Z,14.55
2017-10-24T08:34:06.045Z,14.65
2017-10-24T08:34:46.583Z,14.75
2017-10-24T08:35:27.123Z,14.69
2017-10-24T08:36:07.662Z,14.8
2017-10-24T08:36:48.204Z,14.8
2017-10-24T08:37:28.744Z,14.86
2017-10-24T08:38:09.280Z,14.96
2017-10-24T08:38:49.817Z,14.96
2017-10-24T08:39:30.357Z,14.98
2017-10-24T08:40:10.889Z,14.91
2017-10-24T08:40:51.428Z,15.03
2017-10-24T08:41:31.968Z,15.06
2017-10-24T08:42:12.506Z,15.03
2017-10-24T08:42:53.045Z,15.03
2017-10-24T08:43:33.584Z,15.11
2017-10-24T08:44:14.124Z,15.03
2017-10-24T08:44:54.698Z,15.03